createdAt,value
2022-10-11T00:01:13.971Z,1.17
2022-10-11T00:03:18.770Z,1.13
2022-10-11T00:05:20.982Z,1.04
2022-10-11T00:07:23.090Z,1.18
2022-10-11T00:09:25.453Z,1.12
2022-10-11T00:11:39.863Z,1.08
2022-10-11T00:13:53.415Z,0.90
2022-10-11T00:16:12.375Z,1.10
2022-10-11T00:18:14.567Z,1.05
2022-10-11T00:20:28.586Z,1.10
2022-10-11T00:22:42.051Z,1.13
2022-10-11T00:24:55.318Z,1.05
2022-10-11T00:27:09.365Z,1.00
2022-10-11T00:29:23.483Z,1.08
2022-10-11T00:31:37.729Z,1.19
2022-10-11T00:33:53.967Z,1.20
2022-10-11T00:36:08.968Z,1.38
2022-10-11T00:38:23.568Z,1.53
2022-10-11T00:40:38.693Z,1.79
2022-10-11T00:42:51.941Z,1.77
2022-10-11T00:45:27.977Z,1.99
2022-10-11T00:47:41.507Z,2.00
2022-10-11T00:49:57.855Z,2.25
2022-10-11T00:52:29.261Z,2.28
2022-10-11T00:54:46.041Z,2.31
2022-10-11T00:57:07.223Z,2.41
2022-10-11T00:59:29.713Z,2.35
2022-10-11T01:01:41.982Z,2.58
2022-10-11T01:03:44.393Z,2.56
2022-10-11T01:05:46.545Z,2.39
2022-10-11T01:07:48.861Z,2.34
2022-10-11T01:09:51.620Z,2.26
2022-10-11T01:12:12.761Z,2.16
2022-10-11T01:14:54.420Z,2.09
2022-10-11T01:17:43.909Z,1.93
2022-10-11T01:20:03.267Z,1.88
2022-10-11T01:22:55.203Z,1.81
2022-10-11T01:25:26.848Z,1.70
2022-10-11T01:27:58.860Z,1.63
2022-10-11T01:30:19.667Z,1.55
2022-10-11T01:32:58.170Z,1.72
2022-10-11T01:35:27.190Z,1.51
2022-10-11T01:37:48.424Z,1.37
2022-10-11T01:40:09.661Z,1.38
2022-10-11T01:42:25.440Z,1.24
2022-10-11T01:44:41.822Z,1.19
2022-10-11T01:46:55.497Z,1.17
2022-10-11T01:49:10.101Z,1.09
2022-10-11T01:51:28.889Z,1.11
2022-10-11T01:53:55.183Z,1.09
2022-10-11T01:56:27.090Z,1.04
2022-10-11T01:59:14.211Z,1.00
2022-10-11T02:01:37.131Z,0.99
2022-10-11T02:03:57.779Z,1.23
2022-10-11T02:06:28.152Z,1.15
2022-10-11T02:08:50.415Z,1.11
2022-10-11T02:11:04.650Z,1.03
2022-10-11T02:13:41.337Z,0.98
2022-10-11T02:15:58.615Z,0.90
2022-10-11T02:18:21.077Z,0.82
2022-10-11T02:20:37.478Z,0.65
2022-10-11T02:22:57.956Z,0.69
2022-10-11T02:25:15.517Z,0.74
2022-10-11T02:27:33.740Z,0.63
2022-10-11T02:29:50.102Z,0.65
2022-10-11T02:32:04.508Z,0.58
2022-10-11T02:34:23.063Z,0.59
2022-10-11T02:36:46.514Z,0.44
2022-10-11T02:39:08.111Z,0.46
2022-10-11T02:41:46.657Z,0.56
2022-10-11T02:44:17.595Z,0.49
2022-10-11T02:46:31.953Z,0.51
2022-10-11T02:48:45.440Z,0.42
2022-10-11T02:50:59.888Z,0.49
2022-10-11T02:53:27.054Z,0.49
2022-10-11T02:55:38.673Z,0.40
2022-10-11T02:57:52.415Z,0.42
2022-10-11T03:00:07.126Z,0.47
2022-10-11T03:02:19.427Z,0.44
2022-10-11T03:04:33.628Z,0.43
2022-10-11T03:06:46.314Z,0.51
2022-10-11T03:08:58.821Z,0.54
2022-10-11T03:11:12.892Z,0.52
2022-10-11T03:13:27.026Z,0.59
2022-10-11T03:15:40.313Z,0.53
2022-10-11T03:17:54.117Z,0.45
2022-10-11T03:20:08.591Z,0.46
2022-10-11T03:22:21.433Z,0.37
2022-10-11T03:24:35.022Z,0.38
2022-10-11T03:27:01.660Z,0.33
2022-10-11T03:29:15.082Z,0.28
2022-10-11T03:31:28.861Z,0.29
2022-10-11T03:33:41.991Z,0.25
2022-10-11T03:35:56.115Z,0.23
2022-10-11T03:38:17.312Z,0.32
2022-10-11T03:40:31.010Z,0.26
2022-10-11T03:42:43.657Z,0.24
2022-10-11T03:44:59.712Z,0.31
2022-10-11T03:47:13.541Z,0.36
2022-10-11T03:49:27.704Z,0.37
2022-10-11T03:51:41.936Z,0.37
2022-10-11T03:53:54.721Z,0.30
2022-10-11T03:56:09.951Z,0.31
2022-10-11T03:58:24.195Z,0.34
2022-10-11T04:00:36.472Z,0.23
2022-10-11T04:02:48.405Z,0.34
2022-10-11T04:05:02.832Z,0.31
2022-10-11T04:07:16.687Z,0.40
2022-10-11T04:09:29.507Z,0.45
2022-10-11T04:11:41.982Z,0.48
2022-10-11T04:13:57.175Z,0.47
2022-10-11T04:16:10.259Z,0.51
2022-10-11T04:18:22.973Z,0.65
2022-10-11T04:20:37.229Z,0.73
2022-10-11T04:22:51.291Z,0.80
2022-10-11T04:25:07.208Z,0.86
2022-10-11T04:27:23.908Z,0.97
2022-10-11T04:29:38.800Z,1.11
2022-10-11T04:31:53.275Z,1.23
2022-10-11T04:34:07.214Z,1.33
2022-10-11T04:36:21.338Z,1.68
2022-10-11T04:38:33.991Z,2.22
2022-10-11T04:40:48.016Z,3.10
2022-10-11T04:43:02.551Z,3.94
2022-10-11T04:45:17.190Z,5.53
2022-10-11T04:47:45.939Z,7.33
2022-10-11T04:50:07.263Z,9.03
2022-10-11T04:52:26.041Z,11.14
2022-10-11T04:54:40.793Z,13.60
2022-10-11T04:56:55.784Z,16.00
2022-10-11T04:59:10.195Z,18.48
2022-10-11T05:01:24.695Z,20.57
2022-10-11T05:03:38.403Z,22.07
2022-10-11T05:05:50.562Z,23.14
2022-10-11T05:08:04.312Z,23.92
2022-10-11T05:10:18.569Z,24.53
2022-10-11T05:12:33.572Z,24.49
2022-10-11T05:14:47.158Z,24.21
2022-10-11T05:17:01.104Z,24.16
2022-10-11T05:19:15.171Z,24.22
2022-10-11T05:21:30.408Z,24.42
2022-10-11T05:23:44.092Z,24.56
2022-10-11T05:25:58.583Z,24.50
2022-10-11T05:28:10.664Z,23.93
2022-10-11T05:30:24.828Z,23.34
2022-10-11T05:32:38.870Z,23.38
2022-10-11T05:34:53.005Z,23.60
2022-10-11T05:37:08.535Z,23.36
2022-10-11T05:39:21.443Z,23.07
2022-10-11T05:41:35.929Z,23.43
2022-10-11T05:43:49.893Z,23.24
2022-10-11T05:46:05.317Z,22.37
2022-10-11T05:48:19.917Z,21.09
2022-10-11T05:50:32.768Z,21.41
2022-10-11T05:52:46.637Z,21.27
2022-10-11T05:54:59.334Z,19.72
2022-10-11T05:57:13.715Z,18.74
2022-10-11T05:59:28.251Z,17.38
2022-10-11T06:01:40.609Z,16.25
2022-10-11T06:03:53.625Z,14.64
2022-10-11T06:06:06.048Z,13.43
2022-10-11T06:08:19.733Z,12.54
2022-10-11T06:10:34.003Z,11.86
2022-10-11T06:12:48.757Z,10.74
2022-10-11T06:15:18.874Z,9.90
2022-10-11T06:18:36.203Z,9.10
2022-10-11T06:21:09.181Z,8.41
2022-10-11T06:23:36.852Z,7.91
2022-10-11T06:26:09.358Z,7.72
2022-10-11T06:28:37.289Z,7.48
2022-10-11T06:30:48.978Z,7.26
2022-10-11T06:33:20.864Z,7.02
2022-10-11T06:35:48.510Z,6.86
2022-10-11T06:38:30.781Z,6.75
2022-10-11T06:40:58.522Z,6.81
2022-10-11T06:43:25.527Z,6.67
2022-10-11T06:45:52.702Z,6.59
2022-10-11T06:48:23.206Z,6.70
2022-10-11T06:51:00.481Z,6.71
2022-10-11T06:53:28.444Z,6.67
2022-10-11T06:56:09.880Z,6.21
2022-10-11T06:58:37.512Z,6.46
2022-10-11T07:01:20.716Z,6.43
2022-10-11T07:03:55.604Z,6.66
2022-10-11T07:06:26.246Z,6.77
2022-10-11T07:08:56.320Z,7.00
2022-10-11T07:11:26.475Z,7.01
2022-10-11T07:14:00.304Z,6.94
2022-10-11T07:16:30.799Z,6.93
2022-10-11T07:19:03.385Z,6.90
2022-10-11T07:21:32.084Z,7.11
2022-10-11T07:24:05.605Z,6.97
2022-10-11T07:26:38.800Z,6.81
2022-10-11T07:29:15.035Z,6.91
2022-10-11T07:31:43.619Z,6.95
2022-10-11T07:33:56.454Z,7.09
2022-10-11T07:36:30.572Z,7.13
2022-10-11T07:39:08.985Z,7.23
2022-10-11T07:41:38.155Z,7.21
2022-10-11T07:44:22.390Z,7.37
2022-10-11T07:46:35.357Z,7.26
2022-10-11T07:49:02.806Z,7.45
2022-10-11T07:51:38.680Z,7.39
2022-10-11T07:53:56.797Z,7.33
2022-10-11T07:56:37.087Z,7.38
2022-10-11T07:58:53.594Z,7.42
2022-10-11T08:01:21.348Z,7.50
2022-10-11T08:03:51.895Z,7.64
2022-10-11T08:06:23.933Z,7.70
2022-10-11T08:08:37.031Z,7.73
2022-10-11T08:11:07.345Z,7.63
2022-10-11T08:13:38.139Z,7.80
2022-10-11T08:16:14.309Z,7.82
2022-10-11T08:18:51.179Z,7.74
2022-10-11T08:21:21.608Z,7.89
2022-10-11T08:23:50.917Z,8.07
2022-10-11T08:26:22.055Z,8.15
2022-10-11T08:28:50.251Z,8.22
2022-10-11T08:31:02.437Z,8.32
2022-10-11T08:33:33.604Z,8.35
2022-10-11T08:35:46.798Z,8.47
2022-10-11T08:38:14.230Z,8.59
2022-10-11T08:40:34.251Z,8.52
2022-10-11T08:43:07.014Z,8.59
2022-10-11T08:45:52.304Z,8.58
2022-10-11T08:48:41.788Z,8.53
2022-10-11T08:51:18.534Z,8.63
2022-10-11T08:54:07.779Z,8.68
2022-10-11T08:56:40.117Z,8.76
2022-10-11T08:59:13.134Z,8.82
2022-10-11T09:01:36.236Z,8.81
2022-10-11T09:03:51.864Z,8.81
2022-10-11T09:06:17.078Z,8.77
2022-10-11T09:08:29.202Z,8.67
2022-10-11T09:10:58.630Z,8.69
2022-10-11T09:13:17.741Z,8.71
2022-10-11T09:15:49.297Z,8.69
2022-10-11T09:18:16.303Z,8.71
2022-10-11T09:20:40.385Z,8.74
2022-10-11T09:23:13.938Z,8.78
2022-10-11T09:25:22.245Z,8.74
2022-10-11T09:27:50.398Z,8.68
2022-10-11T09:30:14.818Z,8.77
2022-10-11T09:32:22.750Z,8.82
2022-10-11T09:34:32.395Z,8.88
2022-10-11T09:36:42.987Z,8.95
2022-10-11T09:38:56.964Z,8.94
2022-10-11T09:41:23.825Z,8.95
2022-10-11T09:43:26.060Z,9.00
2022-10-11T09:45:28.159Z,9.10
2022-10-11T09:47:33.104Z,9.21
2022-10-11T09:49:42.778Z,9.29
2022-10-11T09:51:57.037Z,9.35
2022-10-11T09:54:05.614Z,9.36
2022-10-11T09:56:08.518Z,9.39
2022-10-11T09:58:26.139Z,9.51
2022-10-11T10:00:33.749Z,9.54
2022-10-11T10:02:46.980Z,9.60
2022-10-11T10:05:08.397Z,9.69
2022-10-11T10:07:13.209Z,9.74
2022-10-11T10:09:26.661Z,9.73
2022-10-11T10:11:37.060Z,9.83
2022-10-11T10:13:52.495Z,9.85
2022-10-11T10:15:59.357Z,9.89
2022-10-11T10:18:03.092Z,9.86
2022-10-11T10:20:06.594Z,9.83
2022-10-11T10:22:19.375Z,9.80
2022-10-11T10:24:29.497Z,9.83
2022-10-11T10:26:32.978Z,9.85
2022-10-11T10:28:35.950Z,9.81
2022-10-11T10:30:51.203Z,9.85
2022-10-11T10:32:57.113Z,9.84
2022-10-11T10:35:14.171Z,9.82
2022-10-11T10:37:23.996Z,9.72
2022-10-11T10:39:35.380Z,9.73
2022-10-11T10:41:37.629Z,9.78
2022-10-11T10:43:43.165Z,9.72
2022-10-11T10:46:08.303Z,9.85
2022-10-11T10:49:01.735Z,9.76
2022-10-11T10:51:01.089Z,9.73
2022-10-11T10:53:20.925Z,9.76
2022-10-11T10:55:40.317Z,9.77
2022-10-11T10:57:51.322Z,9.78
2022-10-11T11:00:22.399Z,9.81
2022-10-11T11:02:44.412Z,9.73
2022-10-11T11:07:28.699Z,9.93
2022-10-11T11:09:58.662Z,10.00
2022-10-11T11:12:25.457Z,10.03
2022-10-11T11:14:27.508Z,10.08
2022-10-11T11:16:42.239Z,10.07
2022-10-11T11:18:56.047Z,10.07
2022-10-11T11:21:16.090Z,10.07
2022-10-11T11:23:20.827Z,10.09
2022-10-11T11:25:35.484Z,10.12
2022-10-11T11:28:18.674Z,10.12
2022-10-11T11:30:23.263Z,9.95
2022-10-11T11:32:49.458Z,9.95
2022-10-11T11:35:01.325Z,9.96
2022-10-11T11:37:09.916Z,10.00
2022-10-11T11:39:20.907Z,10.02
2022-10-11T11:41:30.959Z,10.00
2022-10-11T11:43:46.619Z,10.01
2022-10-11T11:45:58.038Z,9.99
2022-10-11T11:48:06.800Z,10.05
2022-10-11T11:50:23.845Z,10.05
2022-10-11T11:52:34.926Z,10.07
2022-10-11T11:55:03.058Z,10.05
2022-10-11T11:57:18.912Z,9.99
2022-10-11T11:59:27.855Z,9.99
2022-10-11T12:01:48.151Z,9.99
2022-10-11T12:04:04.242Z,9.87
2022-10-11T12:06:12.375Z,9.87
2022-10-11T12:08:31.927Z,9.78
2022-10-11T12:10:53.669Z,9.79
2022-10-11T12:13:40.551Z,9.78
2022-10-11T12:16:15.840Z,9.70
2022-10-11T12:18:18.338Z,9.66
2022-10-11T12:20:41.391Z,9.56
2022-10-11T12:23:00.479Z,9.55
2022-10-11T12:25:18.387Z,9.58
2022-10-11T12:27:42.302Z,9.55
2022-10-11T12:29:49.559Z,9.47
2022-10-11T12:32:29.192Z,9.42
2022-10-11T12:34:38.578Z,9.43
2022-10-11T12:36:40.659Z,9.51
2022-10-11T12:38:42.781Z,9.50
2022-10-11T12:40:47.394Z,9.51
2022-10-11T12:43:14.377Z,9.50
2022-10-11T12:45:18.959Z,9.51
2022-10-11T12:47:52.906Z,9.48
2022-10-11T12:50:39.211Z,9.46
2022-10-11T12:53:03.636Z,9.39
2022-10-11T12:55:25.396Z,9.42
2022-10-11T12:57:51.963Z,9.42
2022-10-11T12:59:54.112Z,9.34
2022-10-11T13:01:58.170Z,9.36
2022-10-11T13:04:12.858Z,9.28
2022-10-11T13:06:45.397Z,9.33
2022-10-11T13:09:11.643Z,9.29
2022-10-11T13:11:23.644Z,9.30
2022-10-11T13:13:38.904Z,9.27
2022-10-11T13:15:43.768Z,9.27
2022-10-11T13:17:46.087Z,9.23
2022-10-11T13:19:51.395Z,9.25
2022-10-11T13:21:59.511Z,9.21
2022-10-11T13:24:05.115Z,9.23
2022-10-11T13:26:08.654Z,9.15
2022-10-11T13:28:11.540Z,9.17
2022-10-11T13:30:19.699Z,9.21
2022-10-11T13:32:26.442Z,9.18
2022-10-11T13:34:33.015Z,9.09
2022-10-11T13:36:37.501Z,9.12
2022-10-11T13:38:40.788Z,9.00
2022-10-11T13:40:45.311Z,9.00
2022-10-11T13:42:51.528Z,8.98
2022-10-11T13:44:53.980Z,8.96
2022-10-11T13:46:56.000Z,8.94
2022-10-11T13:49:04.585Z,8.89
2022-10-11T13:51:26.469Z,8.84
2022-10-11T13:53:28.784Z,8.77
2022-10-11T13:55:37.046Z,8.72
2022-10-11T13:57:47.044Z,8.70
2022-10-11T13:59:50.023Z,8.69
2022-10-11T14:01:58.195Z,8.63
2022-10-11T14:04:07.303Z,8.56
2022-10-11T14:06:10.247Z,8.49
2022-10-11T14:08:24.648Z,8.45
2022-10-11T14:10:27.098Z,8.40
2022-10-11T14:12:35.749Z,8.30
2022-10-11T14:14:42.773Z,8.24
2022-10-11T14:16:56.498Z,8.21
2022-10-11T14:18:58.794Z,8.15
2022-10-11T14:21:24.271Z,8.09
2022-10-11T14:23:26.674Z,8.04
2022-10-11T14:25:29.097Z,7.97
2022-10-11T14:27:31.298Z,7.88
2022-10-11T14:29:39.741Z,7.80
2022-10-11T14:31:42.307Z,7.74
2022-10-11T14:33:47.385Z,7.67
2022-10-11T14:35:49.575Z,7.56
2022-10-11T14:37:52.488Z,7.41
2022-10-11T14:40:00.935Z,7.42
2022-10-11T14:42:06.511Z,7.31
2022-10-11T14:44:16.833Z,7.24
2022-10-11T14:46:25.203Z,7.15
2022-10-11T14:48:50.089Z,7.08
2022-10-11T14:51:00.422Z,6.95
2022-10-11T14:53:04.227Z,6.88
2022-10-11T14:55:07.078Z,6.74
2022-10-11T14:57:12.995Z,6.48
2022-10-11T14:59:18.254Z,6.53
2022-10-11T15:01:20.449Z,6.45
2022-10-11T15:03:22.534Z,6.32
2022-10-11T15:05:31.171Z,6.21
2022-10-11T15:07:35.799Z,6.09
2022-10-11T15:09:37.857Z,5.91
2022-10-11T15:11:40.576Z,5.77
2022-10-11T15:13:43.042Z,5.70
2022-10-11T15:15:45.587Z,5.67
2022-10-11T15:17:50.164Z,5.51
2022-10-11T15:19:52.548Z,5.42
2022-10-11T15:21:54.481Z,5.37
2022-10-11T15:23:57.144Z,5.24
2022-10-11T15:25:59.827Z,5.19
2022-10-11T15:28:02.356Z,5.05
2022-10-11T15:30:14.361Z,5.00
2022-10-11T15:32:16.487Z,4.97
2022-10-11T15:34:18.535Z,4.89
2022-10-11T15:36:22.630Z,4.88
2022-10-11T15:38:25.991Z,4.83
2022-10-11T15:40:33.456Z,4.77
2022-10-11T15:42:35.679Z,4.65
2022-10-11T15:44:37.790Z,4.54
2022-10-11T15:46:41.644Z,4.53
2022-10-11T15:48:44.686Z,4.51
2022-10-11T15:50:47.332Z,4.44
2022-10-11T15:52:52.778Z,4.31
2022-10-11T15:54:54.939Z,4.23
2022-10-11T15:56:57.012Z,4.20
2022-10-11T15:58:59.201Z,4.11
2022-10-11T16:01:06.195Z,4.04
2022-10-11T16:03:11.935Z,4.05
2022-10-11T16:05:14.002Z,3.89
2022-10-11T16:07:16.249Z,3.88
2022-10-11T16:09:18.272Z,3.87
2022-10-11T16:11:20.441Z,3.81
2022-10-11T16:13:22.590Z,3.75
2022-10-11T16:15:25.017Z,3.75
2022-10-11T16:17:27.201Z,3.47
2022-10-11T16:19:29.518Z,3.64
2022-10-11T16:21:31.579Z,3.64
2022-10-11T16:23:33.597Z,3.56
2022-10-11T16:25:36.119Z,3.56
2022-10-11T16:27:38.255Z,3.46
2022-10-11T16:29:40.397Z,3.47
2022-10-11T16:31:42.521Z,3.44
2022-10-11T16:33:48.099Z,3.39
2022-10-11T16:35:50.904Z,3.41
2022-10-11T16:37:52.825Z,3.34
2022-10-11T16:39:55.103Z,3.24
2022-10-11T16:41:57.467Z,3.22
2022-10-11T16:43:59.883Z,3.13
2022-10-11T16:46:01.776Z,3.15
2022-10-11T16:48:05.049Z,3.02
2022-10-11T16:50:07.934Z,3.09
2022-10-11T16:52:14.285Z,3.03
2022-10-11T16:54:20.462Z,3.07
2022-10-11T16:56:26.111Z,3.06
2022-10-11T16:58:31.285Z,2.97
2022-10-11T17:00:33.988Z,3.00
2022-10-11T17:02:36.535Z,2.96
2022-10-11T17:04:38.770Z,2.90
2022-10-11T17:06:41.446Z,2.87
2022-10-11T17:08:43.864Z,2.91
2022-10-11T17:10:47.780Z,2.89
2022-10-11T17:12:50.411Z,2.89
2022-10-11T17:14:52.901Z,2.88
2022-10-11T17:16:57.779Z,2.89
2022-10-11T17:19:00.213Z,2.93
2022-10-11T17:21:05.281Z,2.99
2022-10-11T17:23:10.230Z,3.02
2022-10-11T17:25:12.650Z,3.26
2022-10-11T17:27:15.769Z,3.37
2022-10-11T17:29:19.238Z,3.50
2022-10-11T17:31:28.062Z,3.53
2022-10-11T17:33:34.023Z,3.44
2022-10-11T17:35:36.204Z,3.40
2022-10-11T17:37:42.357Z,3.27
2022-10-11T17:39:45.062Z,3.13
2022-10-11T17:41:47.700Z,3.09
2022-10-11T17:43:50.025Z,3.02
2022-10-11T17:46:00.125Z,2.91
2022-10-11T17:48:04.222Z,2.93
2022-10-11T17:50:06.842Z,2.96
2022-10-11T17:52:09.135Z,2.99
2022-10-11T17:54:13.200Z,2.94
2022-10-11T17:56:18.220Z,2.91
2022-10-11T17:58:20.536Z,2.82
2022-10-11T18:00:23.214Z,2.89
2022-10-11T18:02:25.356Z,2.91
2022-10-11T18:04:29.858Z,2.90
2022-10-11T18:06:38.207Z,2.83
2022-10-11T18:08:41.512Z,2.69
2022-10-11T18:10:47.479Z,2.64
2022-10-11T18:12:54.130Z,2.54
2022-10-11T18:14:56.314Z,2.62
2022-10-11T18:16:58.419Z,2.51
2022-10-11T18:19:03.072Z,2.52
2022-10-11T18:21:05.645Z,2.46
2022-10-11T18:23:08.326Z,2.46
2022-10-11T18:25:10.425Z,2.42
2022-10-11T18:27:13.284Z,2.39
2022-10-11T18:29:15.770Z,2.27
2022-10-11T18:31:19.561Z,2.34
2022-10-11T18:33:21.743Z,2.15
2022-10-11T18:35:23.910Z,2.25
2022-10-11T18:37:26.988Z,2.17
2022-10-11T18:39:29.325Z,2.15
2022-10-11T18:41:32.403Z,2.15
2022-10-11T18:43:34.919Z,1.91
2022-10-11T18:45:37.471Z,1.97
2022-10-11T18:47:39.566Z,2.03
2022-10-11T18:49:41.770Z,2.07
2022-10-11T18:51:45.477Z,2.08
2022-10-11T18:53:48.813Z,2.10
2022-10-11T18:55:51.431Z,2.04
2022-10-11T18:57:53.929Z,2.02
2022-10-11T18:59:56.182Z,1.96
2022-10-11T19:01:58.929Z,1.92
2022-10-11T19:04:02.653Z,1.93
2022-10-11T19:06:12.864Z,1.86
2022-10-11T19:08:14.995Z,1.89
2022-10-11T19:10:17.043Z,1.98
2022-10-11T19:12:19.278Z,1.96
2022-10-11T19:14:22.851Z,1.95
2022-10-11T19:16:39.359Z,1.82
2022-10-11T19:18:44.194Z,1.80
2022-10-11T19:20:46.838Z,1.78
2022-10-11T19:22:48.920Z,1.78
2022-10-11T19:24:50.936Z,1.68
2022-10-11T19:26:57.236Z,1.66
2022-10-11T19:29:15.059Z,1.67
2022-10-11T19:31:17.208Z,1.65
2022-10-11T19:33:19.614Z,1.61
2022-10-11T19:35:21.607Z,1.67
2022-10-11T19:37:23.733Z,1.56
2022-10-11T19:39:25.850Z,1.59
2022-10-11T19:41:28.080Z,1.59
2022-10-11T19:43:30.375Z,1.52
2022-10-11T19:45:35.452Z,1.55
2022-10-11T19:47:37.546Z,1.52
2022-10-11T19:49:39.664Z,1.46
2022-10-11T19:51:41.773Z,1.48
2022-10-11T19:53:44.262Z,1.46
2022-10-11T19:55:46.668Z,1.43
2022-10-11T19:57:49.363Z,1.35
2022-10-11T19:59:51.382Z,1.33
2022-10-11T20:01:53.711Z,1.32
2022-10-11T20:04:03.576Z,1.29
2022-10-11T20:06:08.010Z,1.24
2022-10-11T20:08:10.191Z,1.05
2022-10-11T20:10:12.236Z,1.17
2022-10-11T20:12:14.351Z,1.08
2022-10-11T20:14:17.457Z,1.03
2022-10-11T20:16:25.729Z,0.98
2022-10-11T20:18:29.336Z,1.03
2022-10-11T20:20:32.154Z,0.97
2022-10-11T20:22:34.694Z,0.92
2022-10-11T20:24:37.106Z,0.94
2022-10-11T20:26:39.487Z,0.86
2022-10-11T20:28:42.346Z,0.85
2022-10-11T20:30:44.441Z,0.79
2022-10-11T20:32:46.639Z,0.75
2022-10-11T20:34:48.750Z,0.72
2022-10-11T20:36:50.871Z,0.65
2022-10-11T20:38:53.673Z,0.67
2022-10-11T20:40:56.307Z,0.68
2022-10-11T20:42:58.685Z,0.61
2022-10-11T20:45:00.702Z,0.69
2022-10-11T20:47:04.209Z,0.60
2022-10-11T20:49:09.417Z,0.58
2022-10-11T20:51:11.598Z,0.67
2022-10-11T20:53:16.333Z,0.66
2022-10-11T20:55:18.622Z,0.61
2022-10-11T20:57:20.806Z,0.63
2022-10-11T20:59:23.476Z,0.62
2022-10-11T21:01:31.913Z,0.65
2022-10-11T21:03:34.012Z,0.62
2022-10-11T21:05:36.165Z,0.57
2022-10-11T21:07:38.181Z,0.57
2022-10-11T21:09:40.303Z,0.57
2022-10-11T21:11:42.411Z,0.57
2022-10-11T21:13:44.636Z,0.52
2022-10-11T21:15:47.543Z,0.35
2022-10-11T21:17:49.842Z,0.48
2022-10-11T21:19:51.814Z,0.52
2022-10-11T21:21:54.441Z,0.47
2022-10-11T21:23:58.419Z,0.50
2022-10-11T21:26:02.897Z,0.46
2022-10-11T21:28:05.987Z,0.48
2022-10-11T21:30:08.717Z,0.48
2022-10-11T21:32:14.288Z,0.40
2022-10-11T21:34:16.767Z,0.40
2022-10-11T21:36:21.885Z,0.41
2022-10-11T21:38:26.004Z,0.40
2022-10-11T21:40:27.998Z,0.40
2022-10-11T21:42:30.192Z,0.34
2022-10-11T21:44:35.996Z,0.35
2022-10-11T21:47:04.751Z,0.29
2022-10-11T21:49:00.108Z,0.24
2022-10-11T21:51:02.164Z,0.22
2022-10-11T21:53:04.364Z,0.20
2022-10-11T21:55:06.547Z,0.18
2022-10-11T21:57:08.622Z,0.19
2022-10-11T21:59:12.674Z,0.13
2022-10-11T22:01:15.257Z,0.08
2022-10-11T22:03:17.737Z,0.16
2022-10-11T22:05:19.816Z,0.16
2022-10-11T22:07:22.417Z,0.15
2022-10-11T22:09:24.723Z,0.12
2022-10-11T22:11:27.115Z,0.13
2022-10-11T22:13:31.167Z,0.11
2022-10-11T22:15:34.800Z,0.11
2022-10-11T22:17:36.853Z,0.10
2022-10-11T22:19:39.536Z,0.05
2022-10-11T22:21:45.020Z,0.07
2022-10-11T22:23:49.473Z,0.05
2022-10-11T22:25:51.575Z,0.07
2022-10-11T22:27:53.966Z,0.04
2022-10-11T22:29:56.092Z,0.03
2022-10-11T22:31:58.260Z,-0.06
2022-10-11T22:34:00.773Z,-0.05
2022-10-11T22:36:05.812Z,-0.07
2022-10-11T22:38:07.910Z,-0.14
2022-10-11T22:40:10.305Z,-0.12
2022-10-11T22:42:12.958Z,-0.08
2022-10-11T22:44:15.139Z,-0.12
2022-10-11T22:46:17.181Z,-0.10
2022-10-11T22:48:19.359Z,-0.17
2022-10-11T22:50:21.583Z,-0.19
2022-10-11T22:52:23.487Z,-0.16
2022-10-11T22:54:25.654Z,-0.18
2022-10-11T22:56:27.835Z,-0.19
2022-10-11T22:58:31.129Z,-0.25
2022-10-11T23:00:34.278Z,-0.31
2022-10-11T23:02:36.291Z,-0.26
2022-10-11T23:04:38.388Z,-0.25
2022-10-11T23:06:41.041Z,-0.28
2022-10-11T23:08:44.516Z,-0.31
2022-10-11T23:10:46.571Z,-0.21
2022-10-11T23:12:48.696Z,-0.16
2022-10-11T23:14:50.717Z,-0.16
2022-10-11T23:16:53.403Z,-0.17
2022-10-11T23:18:55.545Z,-0.24
2022-10-11T23:21:00.612Z,-0.18
2022-10-11T23:23:02.626Z,-0.24
2022-10-11T23:25:05.513Z,-0.22
2022-10-11T23:27:08.011Z,-0.20
2022-10-11T23:29:10.826Z,-0.18
2022-10-11T23:31:16.662Z,-0.17
2022-10-11T23:33:18.725Z,-0.10
2022-10-11T23:35:20.798Z,-0.22
2022-10-11T23:37:22.960Z,-0.10
2022-10-11T23:39:24.973Z,-0.13
2022-10-11T23:41:29.262Z,-0.12
2022-10-11T23:43:31.388Z,-0.24
2022-10-11T23:45:33.568Z,-0.20
2022-10-11T23:47:35.825Z,-0.16
2022-10-11T23:49:37.901Z,-0.18
2022-10-11T23:51:40.257Z,-0.20
2022-10-11T23:53:42.535Z,-0.26
2022-10-11T23:55:44.801Z,-0.31
2022-10-11T23:57:46.905Z,-0.24
2022-10-11T23:59:48.933Z,-0.28
